createdAt,value
2023-01-18T00:00:38.657Z,-0.68
2023-01-18T00:03:13.185Z,-0.83
2023-01-18T00:05:41.505Z,-0.88
2023-01-18T00:08:13.243Z,-0.78
2023-01-18T00:10:40.264Z,-0.73
2023-01-18T00:13:06.825Z,-0.77
2023-01-18T00:15:34.692Z,-0.83
2023-01-18T00:18:01.158Z,-0.82
2023-01-18T00:20:28.949Z,-0.86
2023-01-18T00:22:55.789Z,-0.82
2023-01-18T00:25:24.037Z,-0.88
2023-01-18T00:27:52.332Z,-0.88
2023-01-18T00:30:21.384Z,-0.79
2023-01-18T00:32:48.812Z,-0.85
2023-01-18T00:35:16.041Z,-0.91
2023-01-18T00:37:42.686Z,-0.75
2023-01-18T00:40:09.869Z,-0.84
2023-01-18T00:42:54.917Z,-0.93
2023-01-18T00:45:21.564Z,-0.98
2023-01-18T00:47:47.967Z,-0.94
2023-01-18T00:50:14.431Z,-1.09
2023-01-18T00:52:46.551Z,-1.08
2023-01-18T00:55:14.953Z,-1.02
2023-01-18T00:57:42.452Z,-1.08
2023-01-18T01:00:12.164Z,-1.17
2023-01-18T01:02:41.699Z,-1.08
2023-01-18T01:05:39.204Z,-1.12
2023-01-18T01:08:06.099Z,-1.04
2023-01-18T01:10:35.682Z,-1.05
2023-01-18T01:13:20.576Z,-0.97
2023-01-18T01:16:05.702Z,-1.03
2023-01-18T01:18:50.823Z,-1.06
2023-01-18T01:21:35.724Z,-1.08
2023-01-18T01:24:20.856Z,-1.06
2023-01-18T01:26:47.243Z,-1.08
2023-01-18T01:29:13.621Z,-1.05
2023-01-18T01:31:40.449Z,-1.16
2023-01-18T01:34:06.858Z,-1.06
2023-01-18T01:36:33.346Z,-1.03
2023-01-18T01:38:59.796Z,-1.00
2023-01-18T01:41:29.644Z,-0.97
2023-01-18T01:43:58.283Z,-0.97
2023-01-18T01:46:31.887Z,-0.95
2023-01-18T01:49:12.969Z,-0.88
2023-01-18T01:51:42.884Z,-0.91
2023-01-18T01:54:23.670Z,-0.94
2023-01-18T01:56:53.283Z,-0.98
2023-01-18T01:59:20.094Z,-0.99
2023-01-18T02:01:46.690Z,-0.91
2023-01-18T02:04:13.528Z,-1.00
2023-01-18T02:06:40.704Z,-1.10
2023-01-18T02:09:11.179Z,-0.88
2023-01-18T02:11:38.245Z,-0.91
2023-01-18T02:14:10.393Z,-0.98
2023-01-18T02:20:34.591Z,-1.03
2023-01-18T02:23:16.331Z,-1.00
2023-01-18T02:26:30.473Z,-1.02
2023-01-18T02:29:13.694Z,-1.04
2023-01-18T02:32:29.472Z,-1.00
2023-01-18T02:35:06.974Z,-0.99
2023-01-18T02:37:49.823Z,-0.92
2023-01-18T02:40:30.568Z,-0.91
2023-01-18T02:43:20.001Z,-0.95
2023-01-18T02:46:08.266Z,-0.94
2023-01-18T02:48:43.209Z,-0.90
2023-01-18T02:51:10.055Z,-0.71
2023-01-18T02:53:42.470Z,-0.90
2023-01-18T02:56:14.318Z,-1.01
2023-01-18T02:59:00.296Z,-0.92
2023-01-18T03:01:36.396Z,-0.77
2023-01-18T03:04:08.975Z,-0.74
2023-01-18T04:04:27.864Z,-0.93
2023-01-18T04:06:54.292Z,-0.91
2023-01-18T04:09:20.698Z,-0.90
2023-01-18T04:11:47.079Z,-0.90
2023-01-18T04:14:13.532Z,-0.87
2023-01-18T04:16:39.978Z,-0.92
2023-01-18T04:19:08.628Z,-0.87
2023-01-18T04:21:35.453Z,-0.86
2023-01-18T04:24:01.847Z,-0.88
2023-01-18T04:26:29.870Z,-0.86
2023-01-18T04:28:56.246Z,-0.83
2023-01-18T04:31:22.805Z,-0.81
2023-01-18T04:33:52.073Z,-0.81
2023-01-18T04:36:20.105Z,-0.79
2023-01-18T04:38:46.544Z,-0.80
2023-01-18T04:41:13.137Z,-0.77
2023-01-18T04:43:39.539Z,-0.73
2023-01-18T04:46:05.941Z,-0.72
2023-01-18T04:48:32.364Z,-0.69
2023-01-18T04:50:58.743Z,-0.67
2023-01-18T04:53:25.161Z,-0.68
2023-01-18T04:55:51.552Z,-0.69
2023-01-18T04:58:17.967Z,-0.69
2023-01-18T05:00:44.540Z,-0.69
2023-01-18T05:03:12.347Z,-0.62
2023-01-18T05:05:38.976Z,-0.61
2023-01-18T05:08:05.382Z,-0.61
2023-01-18T05:10:33.459Z,-0.63
2023-01-18T05:13:00.189Z,-0.48
2023-01-18T05:15:26.815Z,-0.50
2023-01-18T05:17:53.208Z,-0.45
2023-01-18T05:20:19.607Z,-0.48
2023-01-18T05:22:46.000Z,-0.44
2023-01-18T05:25:12.388Z,-0.37
2023-01-18T05:27:38.798Z,-0.48
2023-01-18T05:30:06.862Z,-0.39
2023-01-18T05:32:33.408Z,-0.41
2023-01-18T05:34:59.824Z,-0.54
2023-01-18T05:37:26.367Z,-0.40
2023-01-18T05:39:52.748Z,-0.31
2023-01-18T05:42:19.395Z,-0.23
2023-01-18T05:44:45.849Z,-0.20
2023-01-18T05:47:12.251Z,-0.18
2023-01-18T05:49:41.037Z,-0.14
2023-01-18T05:52:08.387Z,-0.13
2023-01-18T05:54:34.840Z,-0.19
2023-01-18T05:57:01.317Z,-0.21
2023-01-18T05:59:27.715Z,-0.29
2023-01-18T06:02:19.162Z,-0.34
2023-01-18T06:04:45.571Z,-0.37
2023-01-18T06:07:12.863Z,-0.40
2023-01-18T06:09:39.295Z,-0.30
2023-01-18T06:12:06.244Z,-0.33
2023-01-18T06:14:32.936Z,-0.31
2023-01-18T06:17:01.479Z,-0.28
2023-01-18T06:19:28.059Z,-0.23
2023-01-18T06:21:54.482Z,-0.17
2023-01-18T06:24:20.885Z,-0.04
2023-01-18T06:26:47.312Z,-0.11
2023-01-18T06:29:13.774Z,-0.14
2023-01-18T06:31:40.221Z,-0.15
2023-01-18T06:34:09.357Z,-0.20
2023-01-18T06:36:39.268Z,-0.23
2023-01-18T06:39:05.801Z,-0.22
2023-01-18T06:41:33.296Z,-0.24
2023-01-18T06:43:59.697Z,-0.07
2023-01-18T06:46:26.357Z,-0.05
2023-01-18T06:48:52.757Z,-0.10
2023-01-18T06:51:20.260Z,-0.03
2023-01-18T06:53:46.684Z,0.03
2023-01-18T06:56:14.339Z,0.05
2023-01-18T06:58:40.801Z,0.02
2023-01-18T07:01:07.581Z,0.02
2023-01-18T07:03:34.752Z,-0.01
2023-01-18T07:06:03.381Z,-0.07
2023-01-18T07:08:31.032Z,-0.06
2023-01-18T07:10:58.048Z,-0.02
2023-01-18T07:13:24.449Z,-0.12
2023-01-18T07:15:57.997Z,-0.09
2023-01-18T07:18:26.175Z,0.09
2023-01-18T07:20:57.629Z,0.01
2023-01-18T07:23:24.219Z,-0.05
2023-01-18T07:25:58.218Z,0.01
2023-01-18T07:28:24.613Z,0.14
2023-01-18T07:30:51.016Z,0.01
2023-01-18T07:33:17.398Z,0.10
2023-01-18T07:35:43.790Z,0.14
2023-01-18T07:38:10.246Z,0.11
2023-01-18T07:40:36.660Z,0.05
2023-01-18T07:43:04.001Z,0.15
2023-01-18T07:45:30.408Z,0.14
2023-01-18T07:47:56.820Z,0.15
2023-01-18T07:50:23.310Z,0.14
2023-01-18T07:52:49.748Z,0.18
2023-01-18T07:55:16.198Z,0.19
2023-01-18T07:57:42.717Z,0.20
2023-01-18T08:00:11.093Z,0.21
2023-01-18T08:02:40.598Z,0.22
2023-01-18T08:05:09.858Z,0.23
2023-01-18T08:07:36.825Z,0.43
2023-01-18T08:10:03.465Z,0.39
2023-01-18T08:12:29.885Z,0.36
2023-01-18T08:14:56.373Z,0.35
2023-01-18T08:17:22.813Z,0.28
2023-01-18T08:19:49.405Z,0.36
2023-01-18T08:22:15.809Z,0.40
2023-01-18T08:24:42.211Z,0.42
2023-01-18T08:27:08.601Z,0.44
2023-01-18T08:29:35.024Z,0.46
2023-01-18T08:32:02.616Z,0.49
2023-01-18T08:34:29.057Z,0.55
2023-01-18T08:36:55.499Z,0.64
2023-01-18T08:39:21.916Z,0.61
2023-01-18T08:41:49.519Z,0.64
2023-01-18T08:44:15.923Z,0.79
2023-01-18T08:46:42.401Z,0.76
2023-01-18T08:49:08.823Z,0.77
2023-01-18T08:51:35.229Z,0.88
2023-01-18T08:54:01.690Z,0.94
2023-01-18T08:56:28.427Z,0.95
2023-01-18T08:58:54.968Z,1.00
2023-01-18T09:01:23.468Z,1.07
2023-01-18T09:03:53.046Z,1.03
2023-01-18T09:06:19.428Z,1.08
2023-01-18T09:08:49.531Z,1.17
2023-01-18T09:11:16.957Z,1.14
2023-01-18T09:13:59.332Z,1.20
2023-01-18T09:16:27.153Z,1.22
2023-01-18T09:18:55.416Z,1.29
2023-01-18T09:21:22.194Z,1.19
2023-01-18T09:23:49.637Z,1.17
2023-01-18T09:26:17.310Z,1.23
2023-01-18T09:28:47.337Z,1.33
2023-01-18T09:31:13.763Z,1.34
2023-01-18T09:33:41.190Z,1.35
2023-01-18T09:36:11.216Z,1.39
2023-01-18T09:38:39.235Z,1.44
2023-01-18T09:41:08.997Z,1.48
2023-01-18T09:43:42.579Z,1.36
2023-01-18T09:46:18.722Z,1.44
2023-01-18T09:48:49.268Z,1.38
2023-01-18T09:51:22.677Z,1.43
2023-01-18T09:54:14.620Z,1.46
2023-01-18T09:56:53.853Z,1.44
2023-01-18T09:59:32.816Z,1.46
2023-01-18T10:02:15.312Z,1.47
2023-01-18T10:04:45.721Z,1.48
2023-01-18T10:07:16.812Z,1.58
2023-01-18T10:09:55.205Z,1.62
2023-01-18T10:12:40.977Z,1.64
2023-01-18T10:15:27.424Z,1.75
2023-01-18T10:17:56.553Z,1.73
2023-01-18T10:20:46.733Z,1.81
2023-01-18T10:23:24.421Z,1.71
2023-01-18T10:26:01.700Z,1.72
2023-01-18T10:28:39.578Z,1.73
2023-01-18T10:31:34.066Z,1.76
2023-01-18T10:34:02.697Z,1.76
2023-01-18T10:36:33.196Z,1.72
2023-01-18T10:39:07.343Z,1.80
2023-01-18T10:41:38.145Z,1.80
2023-01-18T10:44:04.706Z,1.84
2023-01-18T10:46:32.047Z,1.89
2023-01-18T10:48:59.149Z,1.95
2023-01-18T10:51:36.967Z,1.98
2023-01-18T10:54:29.818Z,1.95
2023-01-18T10:57:03.981Z,2.02
2023-01-18T10:59:37.487Z,2.01
2023-01-18T11:02:04.952Z,2.08
2023-01-18T11:04:33.497Z,2.17
2023-01-18T11:07:02.496Z,2.18
2023-01-18T11:09:54.801Z,2.16
2023-01-18T11:12:37.556Z,2.18
2023-01-18T11:15:13.085Z,2.21
2023-01-18T11:18:00.640Z,2.23
2023-01-18T11:20:48.625Z,2.29
2023-01-18T11:23:38.228Z,2.27
2023-01-18T11:26:12.736Z,2.19
2023-01-18T11:28:49.818Z,2.23
2023-01-18T11:31:22.207Z,2.24
2023-01-18T11:33:54.413Z,2.24
2023-01-18T11:36:34.193Z,2.29
2023-01-18T11:39:19.323Z,2.32
2023-01-18T11:41:45.898Z,2.29
2023-01-18T11:44:34.826Z,2.30
2023-01-18T11:47:06.010Z,2.40
2023-01-18T11:49:37.004Z,2.29
2023-01-18T11:52:14.492Z,2.33
2023-01-18T11:54:47.985Z,2.34
2023-01-18T11:57:14.393Z,2.42
2023-01-18T11:59:43.560Z,2.47
2023-01-18T12:02:31.972Z,2.45
2023-01-18T12:05:27.022Z,2.52
2023-01-18T12:08:31.027Z,2.52
2023-01-18T12:11:21.677Z,2.62
2023-01-18T12:13:59.869Z,2.63
2023-01-18T12:16:53.915Z,2.68
2023-01-18T12:19:37.220Z,2.70
2023-01-18T12:22:23.184Z,2.69
2023-01-18T12:25:10.405Z,2.76
2023-01-18T12:27:39.739Z,2.77
2023-01-18T12:30:27.905Z,2.79
2023-01-18T12:33:16.102Z,2.84
2023-01-18T12:36:08.228Z,2.82
2023-01-18T12:38:40.779Z,2.86
2023-01-18T12:41:22.649Z,2.85
2023-01-18T12:44:17.064Z,2.87
2023-01-18T12:47:05.118Z,2.97
2023-01-18T12:49:37.428Z,2.94
2023-01-18T12:52:18.084Z,2.92
2023-01-18T12:54:51.700Z,2.91
2023-01-18T12:57:20.350Z,2.88
2023-01-18T12:59:59.447Z,2.95
2023-01-18T13:02:33.079Z,2.96
2023-01-18T13:05:19.104Z,3.06
2023-01-18T13:07:51.322Z,3.07
2023-01-18T13:10:27.060Z,3.11
2023-01-18T13:12:55.898Z,2.99
2023-01-18T13:15:28.300Z,3.05
2023-01-18T13:18:09.591Z,3.04
2023-01-18T13:20:50.906Z,3.11
2023-01-18T13:23:32.504Z,3.19
2023-01-18T13:26:05.005Z,3.17
2023-01-18T13:28:31.432Z,3.18
2023-01-18T13:31:06.361Z,3.16
2023-01-18T13:33:35.537Z,3.16
2023-01-18T13:36:09.763Z,3.17
2023-01-18T13:38:47.627Z,3.26
2023-01-18T13:41:16.848Z,3.21
2023-01-18T13:43:43.197Z,3.17
2023-01-18T13:46:09.866Z,3.19
2023-01-18T13:48:41.896Z,3.21
2023-01-18T13:51:09.252Z,3.21
2023-01-18T13:53:49.791Z,3.30
2023-01-18T13:56:26.454Z,3.36
2023-01-18T13:58:59.371Z,3.36
2023-01-18T14:01:28.314Z,3.42
2023-01-18T14:03:55.364Z,3.45
2023-01-18T14:06:30.667Z,3.44
2023-01-18T14:09:05.245Z,3.38
2023-01-18T14:11:36.398Z,3.42
2023-01-18T14:14:02.743Z,3.36
2023-01-18T14:16:34.592Z,3.34
2023-01-18T14:19:03.927Z,3.40
2023-01-18T14:21:49.123Z,3.28
2023-01-18T14:24:41.828Z,3.38
2023-01-18T14:27:19.955Z,3.42
2023-01-18T14:29:52.101Z,3.45
2023-01-18T14:32:23.049Z,3.33
2023-01-18T14:35:00.535Z,3.25
2023-01-18T14:37:32.225Z,3.20
2023-01-18T14:40:14.812Z,3.16
2023-01-18T14:42:50.604Z,3.12
2023-01-18T14:45:24.763Z,3.29
2023-01-18T14:47:51.237Z,3.33
2023-01-18T14:50:20.123Z,3.33
2023-01-18T14:52:48.906Z,3.27
2023-01-18T14:55:28.688Z,3.22
2023-01-18T14:58:12.529Z,3.23
2023-01-18T15:00:44.658Z,3.32
2023-01-18T15:03:24.344Z,3.37
2023-01-18T15:05:57.510Z,3.19
2023-01-18T15:08:26.716Z,3.12
2023-01-18T15:10:53.791Z,3.06
2023-01-18T15:13:20.320Z,3.00
2023-01-18T15:15:47.432Z,2.97
2023-01-18T15:18:20.757Z,2.96
2023-01-18T15:20:56.268Z,3.06
2023-01-18T15:23:24.744Z,3.01
2023-01-18T15:25:53.003Z,3.02
2023-01-18T15:28:23.962Z,2.98
2023-01-18T15:30:54.254Z,2.96
2023-01-18T15:33:23.238Z,2.91
2023-01-18T15:35:54.036Z,2.97
2023-01-18T15:38:20.494Z,2.96
2023-01-18T15:40:58.481Z,3.03
2023-01-18T15:43:42.416Z,3.03
2023-01-18T15:46:12.028Z,2.92
2023-01-18T15:48:54.644Z,2.91
2023-01-18T15:51:22.871Z,2.92
2023-01-18T15:53:55.926Z,2.80
2023-01-18T15:56:25.627Z,2.81
2023-01-18T15:58:55.774Z,2.82
2023-01-18T16:01:33.956Z,2.79
2023-01-18T16:04:17.995Z,2.72
2023-01-18T16:06:45.530Z,2.73
2023-01-18T16:09:13.694Z,2.54
2023-01-18T16:11:51.647Z,2.65
2023-01-18T16:14:40.549Z,2.61
2023-01-18T16:17:20.802Z,2.68
2023-01-18T16:19:53.675Z,2.71
2023-01-18T16:22:24.238Z,2.64
2023-01-18T16:24:55.697Z,2.64
2023-01-18T16:27:25.620Z,2.62
2023-01-18T16:29:55.407Z,2.62
2023-01-18T16:32:21.794Z,2.73
2023-01-18T16:34:48.729Z,2.69
2023-01-18T16:37:15.224Z,2.70
2023-01-18T16:39:41.634Z,2.61
2023-01-18T16:42:10.258Z,2.55
2023-01-18T16:44:37.386Z,2.48
2023-01-18T16:47:04.647Z,2.45
2023-01-18T16:49:31.041Z,2.44
2023-01-18T16:51:57.659Z,2.42
2023-01-18T16:54:24.093Z,2.44
2023-01-18T16:56:50.500Z,2.39
2023-01-18T16:59:21.793Z,2.40
2023-01-18T17:01:49.544Z,2.40
2023-01-18T17:04:16.233Z,2.33
2023-01-18T17:06:43.700Z,2.32
2023-01-18T17:09:25.510Z,2.34
2023-01-18T17:11:52.874Z,2.38
2023-01-18T17:14:20.357Z,2.31
2023-01-18T17:16:48.994Z,2.32
2023-01-18T17:19:18.064Z,2.49
2023-01-18T17:21:46.884Z,2.48
2023-01-18T17:24:14.534Z,2.33
2023-01-18T17:26:41.760Z,2.29
2023-01-18T17:29:09.443Z,2.21
2023-01-18T17:31:41.632Z,2.20
2023-01-18T17:34:26.705Z,2.23
2023-01-18T17:36:55.003Z,2.33
2023-01-18T17:39:22.477Z,2.17
2023-01-18T17:41:49.380Z,2.07
2023-01-18T17:44:15.781Z,2.05
2023-01-18T17:46:42.236Z,2.01
2023-01-18T17:49:09.396Z,2.00
2023-01-18T17:51:36.561Z,1.96
2023-01-18T17:54:03.703Z,1.91
2023-01-18T17:56:32.824Z,1.93
2023-01-18T17:58:59.226Z,1.90
2023-01-18T18:01:25.634Z,1.91
2023-01-18T18:03:52.575Z,1.83
2023-01-18T18:06:30.151Z,1.82
2023-01-18T18:08:57.613Z,1.75
2023-01-18T18:11:24.091Z,1.74
2023-01-18T18:13:50.478Z,1.72
2023-01-18T18:16:18.753Z,1.71
2023-01-18T18:18:45.738Z,1.72
2023-01-18T18:21:12.414Z,1.63
2023-01-18T18:23:38.822Z,1.62
2023-01-18T18:26:05.554Z,1.62
2023-01-18T18:28:33.298Z,1.59
2023-01-18T18:31:00.200Z,1.50
2023-01-18T18:33:27.640Z,1.48
2023-01-18T18:35:54.220Z,1.43
2023-01-18T18:38:23.887Z,1.50
2023-01-18T18:40:51.087Z,1.43
2023-01-18T18:43:17.644Z,1.51
2023-01-18T18:45:45.555Z,1.43
2023-01-18T18:48:13.072Z,1.38
2023-01-18T18:50:40.277Z,1.32
2023-01-18T18:53:06.860Z,1.26
2023-01-18T18:55:33.266Z,1.27
2023-01-18T18:57:59.688Z,1.20
2023-01-18T19:00:27.279Z,1.18
2023-01-18T19:03:00.920Z,1.12
2023-01-18T19:05:28.636Z,1.15
2023-01-18T19:07:55.052Z,1.16
2023-01-18T19:10:22.876Z,1.17
2023-01-18T19:12:49.272Z,1.15
2023-01-18T19:15:15.655Z,1.12
2023-01-18T19:17:42.116Z,1.12
2023-01-18T19:20:10.998Z,1.08
2023-01-18T19:22:38.216Z,1.09
2023-01-18T19:25:05.069Z,1.02
2023-01-18T19:27:31.483Z,1.00
2023-01-18T19:29:57.889Z,0.99
2023-01-18T19:32:24.479Z,0.96
2023-01-18T19:34:50.867Z,0.96
2023-01-18T19:37:17.283Z,0.93
2023-01-18T19:39:43.697Z,0.98
2023-01-18T19:42:10.183Z,0.91
2023-01-18T19:44:36.613Z,0.82
2023-01-18T19:47:03.325Z,0.72
2023-01-18T19:49:29.869Z,0.66
2023-01-18T19:51:56.255Z,0.67
2023-01-18T19:54:22.723Z,0.62
2023-01-18T19:56:49.453Z,0.61
2023-01-18T19:59:15.878Z,0.55
2023-01-18T20:01:42.979Z,0.47
2023-01-18T20:04:09.902Z,0.48
2023-01-18T20:06:40.756Z,0.44
2023-01-18T20:09:18.068Z,0.49
2023-01-18T20:11:44.979Z,0.44
2023-01-18T20:14:12.145Z,0.57
2023-01-18T20:16:38.694Z,0.44
2023-01-18T20:19:05.091Z,0.34
2023-01-18T20:21:31.469Z,0.32
2023-01-18T20:23:57.879Z,0.26
2023-01-18T20:26:35.784Z,0.25
2023-01-18T20:29:07.175Z,0.26
2023-01-18T20:31:36.051Z,0.21
2023-01-18T20:34:03.014Z,0.19
2023-01-18T20:36:29.673Z,0.12
2023-01-18T20:38:56.384Z,0.09
2023-01-18T20:41:22.883Z,0.05
2023-01-18T20:43:49.298Z,0.04
2023-01-18T20:46:15.790Z,0.16
2023-01-18T20:48:42.216Z,0.12
2023-01-18T20:51:08.636Z,0.07
2023-01-18T20:53:35.821Z,-0.02
2023-01-18T20:56:09.825Z,-0.10
2023-01-18T20:58:41.422Z,-0.17
2023-01-18T21:01:15.576Z,-0.14
2023-01-18T21:03:46.500Z,-0.19
2023-01-18T21:06:13.259Z,-0.21
2023-01-18T21:08:40.048Z,-0.24
2023-01-18T21:11:12.127Z,-0.28
2023-01-18T21:13:38.507Z,-0.29
2023-01-18T21:16:05.121Z,-0.36
2023-01-18T21:18:32.562Z,-0.42
2023-01-18T21:20:59.853Z,-0.41
2023-01-18T21:23:27.209Z,-0.46
2023-01-18T21:25:56.772Z,-0.48
2023-01-18T21:28:24.197Z,-0.53
2023-01-18T21:30:51.923Z,-0.54
2023-01-18T21:33:19.096Z,-0.51
2023-01-18T21:35:45.744Z,-0.55
2023-01-18T21:38:12.240Z,-0.53
2023-01-18T21:40:38.851Z,-0.50
2023-01-18T21:43:23.787Z,-0.50
2023-01-18T21:45:56.115Z,-0.51
2023-01-18T21:48:26.788Z,-0.54
2023-01-18T21:51:12.682Z,-0.55
2023-01-18T21:54:00.460Z,-0.57
2023-01-18T21:56:26.861Z,-0.57
2023-01-18T21:58:53.925Z,-0.50
2023-01-18T22:01:38.931Z,-0.49
2023-01-18T22:04:26.285Z,-0.46
2023-01-18T22:06:53.972Z,-0.46
2023-01-18T22:09:20.870Z,-0.46
2023-01-18T22:11:47.406Z,-0.49
2023-01-18T22:14:13.822Z,-0.47
2023-01-18T22:16:40.336Z,-0.50
2023-01-18T22:19:07.049Z,-0.46
2023-01-18T22:21:33.856Z,-0.44
2023-01-18T22:24:00.332Z,-0.46
2023-01-18T22:26:28.802Z,-0.45
2023-01-18T22:28:55.565Z,-0.49
2023-01-18T22:31:22.230Z,-0.55
2023-01-18T22:33:48.808Z,-0.50
2023-01-18T22:36:16.718Z,-0.59
2023-01-18T22:38:44.760Z,-0.59
2023-01-18T22:41:17.130Z,-0.61
2023-01-18T22:43:44.292Z,-0.68
2023-01-18T22:46:13.895Z,-0.61
2023-01-18T22:48:41.043Z,-0.65
2023-01-18T22:51:10.724Z,-0.65
2023-01-18T22:53:37.793Z,-0.60
2023-01-18T22:56:10.038Z,-0.59
2023-01-18T22:58:36.866Z,-0.60
2023-01-18T23:01:04.081Z,-0.64
2023-01-18T23:03:30.976Z,-0.65
2023-01-18T23:05:59.164Z,-0.63
2023-01-18T23:08:42.368Z,-0.67
2023-01-18T23:11:20.820Z,-0.75
2023-01-18T23:14:08.882Z,-0.78
2023-01-18T23:16:55.111Z,-0.77
2023-01-18T23:19:23.991Z,-0.84
2023-01-18T23:21:51.059Z,-0.83
2023-01-18T23:24:17.603Z,-0.93
2023-01-18T23:26:44.096Z,-0.90
2023-01-18T23:29:10.623Z,-0.92
2023-01-18T23:31:37.012Z,-0.99
2023-01-18T23:34:03.508Z,-0.98
2023-01-18T23:36:29.891Z,-0.98
2023-01-18T23:39:15.250Z,-1.01
2023-01-18T23:42:00.255Z,-1.01
2023-01-18T23:44:45.435Z,-1.03
2023-01-18T23:47:30.606Z,-1.04
2023-01-18T23:50:15.843Z,-1.05
2023-01-18T23:53:01.160Z,-1.06
2023-01-18T23:55:27.576Z,-1.08
2023-01-18T23:57:53.981Z,-1.05
